Time;durP1;ratioP1;P1;durP2;ratioP2;P2;SDS_P1;SDS_P2;PMS_P1;PMS_P2;Temp;Humidity;BMP_temperature;BMP_pressure;BME280_temperature;BME280_humidity;BME280_pressure;Samples;Min_cycle;Max_cycle;Signal;HPM_P1;HPM_P2
2022/09/06 00:00:12;;;;;;;39.03;29.87;;;19.00;99.90;;;;;;5073318;28;20497;-66
2022/09/06 00:02:40;;;;;;;31.63;28.53;;;18.80;99.90;;;;;;5078258;28;20493;-67
2022/09/06 00:05:09;;;;;;;31.00;28.00;;;18.60;99.90;;;;;;5076098;28;20853;-66
2022/09/06 00:07:36;;;;;;;28.73;26.13;;;18.40;99.90;;;;;;5071102;28;21309;-65
2022/09/06 00:10:03;;;;;;;29.50;26.87;;;18.30;99.90;;;;;;5073100;28;20459;-66
2022/09/06 00:12:30;;;;;;;27.40;25.10;;;18.20;99.90;;;;;;5083817;28;20963;-65
2022/09/06 00:14:59;;;;;;;27.20;24.40;;;18.10;99.90;;;;;;5076664;28;20463;-66
2022/09/06 00:17:26;;;;;;;27.33;24.97;;;18.00;99.90;;;;;;5079254;28;20459;-68
2022/09/06 00:19:54;;;;;;;26.37;24.23;;;18.00;99.90;;;;;;5075421;28;20483;-67
2022/09/06 00:22:20;;;;;;;25.40;23.40;;;18.10;99.90;;;;;;5075686;28;20488;-66
2022/09/06 00:24:47;;;;;;;24.50;22.37;;;18.00;99.90;;;;;;5081751;28;20449;-67
2022/09/06 00:27:15;;;;;;;23.10;21.00;;;18.10;99.90;;;;;;5080325;28;20463;-66
2022/09/06 00:29:43;;;;;;;21.70;20.20;;;18.10;99.90;;;;;;5076250;28;20969;-66
2022/09/06 00:32:11;;;;;;;22.80;21.20;;;18.00;99.90;;;;;;5080800;28;20469;-66
2022/09/06 00:34:37;;;;;;;23.87;21.83;;;17.90;99.90;;;;;;5073927;28;20461;-68
2022/09/06 00:37:05;;;;;;;22.47;20.37;;;17.90;99.90;;;;;;5074915;28;20461;-67
2022/09/06 00:39:32;;;;;;;23.23;21.53;;;17.90;99.90;;;;;;5082851;28;20481;-66
2022/09/06 00:41:59;;;;;;;21.63;19.93;;;17.90;99.90;;;;;;5083180;28;20450;-65
2022/09/06 00:44:26;;;;;;;22.97;21.37;;;18.00;99.90;;;;;;5085059;28;20462;-65
2022/09/06 00:46:54;;;;;;;24.17;22.37;;;18.10;99.90;;;;;;5077865;28;20972;-67
2022/09/06 00:49:27;;;;;;;25.63;23.70;;;18.20;99.90;;;;;;5080583;28;20466;-65
2022/09/06 00:51:58;;;;;;;25.37;23.37;;;18.10;99.90;;;;;;5078018;28;21233;-66
2022/09/06 00:54:26;;;;;;;25.90;23.60;;;18.00;99.90;;;;;;5080926;28;20461;-66
2022/09/06 00:56:56;;;;;;;25.23;23.33;;;17.90;99.90;;;;;;5083347;28;20814;-67
2022/09/06 00:59:25;;;;;;;25.50;23.80;;;17.80;99.90;;;;;;5081357;28;20484;-66
2022/09/06 01:01:53;;;;;;;26.30;24.33;;;17.80;99.90;;;;;;5080856;28;20478;-66
2022/09/06 01:04:20;;;;;;;25.87;23.97;;;17.80;99.90;;;;;;5077079;28;20470;-67
2022/09/06 01:06:57;;;;;;;25.73;23.73;;;17.70;99.90;;;;;;5076712;28;20474;-67
2022/09/06 01:09:36;;;;;;;25.83;23.93;;;17.70;99.90;;;;;;5085893;28;20795;-66
2022/09/06 01:12:16;;;;;;;39.17;24.13;;;17.70;99.90;;;;;;5084791;28;20454;-67
2022/09/06 01:14:58;;;;;;;26.07;24.17;;;17.70;99.90;;;;;;5081798;28;20960;-66
2022/09/06 01:17:33;;;;;;;24.80;23.10;;;17.80;99.90;;;;;;5080964;28;20458;-66
2022/09/06 01:20:29;;;;;;;25.30;23.00;;;17.70;99.90;;;;;;5082538;28;20486;-67
2022/09/06 01:23:24;;;;;;;24.83;22.70;;;17.70;99.90;;;;;;5082245;28;20820;-67
2022/09/06 01:26:14;;;;;;;23.53;21.93;;;17.60;99.90;;;;;;5080749;28;20484;-68
2022/09/06 01:28:45;;;;;;;22.67;21.13;;;17.70;99.90;;;;;;5074639;28;21153;-67
2022/09/06 01:31:23;;;;;;;24.57;22.30;;;17.70;99.90;;;;;;5080590;28;20462;-67
2022/09/06 01:34:10;;;;;;;23.50;21.73;;;17.60;99.90;;;;;;5088630;28;20572;-66
2022/09/06 01:36:43;;;;;;;23.47;21.90;;;17.60;99.90;;;;;;5084604;28;20458;-66
2022/09/06 01:39:21;;;;;;;23.30;21.80;;;17.60;99.90;;;;;;5078066;28;20488;-66
2022/09/06 01:41:48;;;;;;;23.33;21.83;;;17.50;99.90;;;;;;5078559;28;20461;-68
2022/09/06 01:44:17;;;;;;;24.50;22.80;;;17.50;99.90;;;;;;5077802;28;20458;-66
2022/09/06 01:46:51;;;;;;;23.87;22.27;;;17.50;99.90;;;;;;5081018;28;20830;-68
2022/09/06 01:49:29;;;;;;;24.57;22.17;;;17.50;99.90;;;;;;5076770;28;20465;-66
2022/09/06 01:52:06;;;;;;;23.73;21.90;;;17.50;99.90;;;;;;5084230;28;20492;-67
2022/09/06 01:55:00;;;;;;;21.60;20.17;;;17.50;99.90;;;;;;5083546;28;20453;-66
2022/09/06 01:57:44;;;;;;;20.07;18.87;;;17.70;99.90;;;;;;5070736;28;20466;-66
2022/09/06 02:00:14;;;;;;;21.37;19.97;;;17.80;99.90;;;;;;5080988;28;20497;-67
2022/09/06 02:02:52;;;;;;;21.70;20.30;;;17.80;99.90;;;;;;5075587;28;20487;-67
2022/09/06 02:05:25;;;;;;;22.77;21.07;;;17.60;99.90;;;;;;5079763;28;20469;-66
2022/09/06 02:07:57;;;;;;;23.43;21.73;;;17.60;99.90;;;;;;5084323;28;20822;-66
2022/09/06 02:10:28;;;;;;;22.53;21.13;;;17.60;99.90;;;;;;5083901;28;20465;-66
2022/09/06 02:13:00;;;;;;;22.97;21.47;;;17.60;99.90;;;;;;5083247;28;20465;-67
2022/09/06 02:15:33;;;;;;;24.20;22.40;;;17.60;99.90;;;;;;5077099;28;20486;-67
2022/09/06 02:18:03;;;;;;;24.47;22.67;;;17.70;99.90;;;;;;5080079;28;20466;-67
2022/09/06 02:20:33;;;;;;;24.47;22.80;;;17.60;99.90;;;;;;5083749;28;20482;-66
2022/09/06 02:23:04;;;;;;;24.73;22.73;;;17.70;99.90;;;;;;5079538;28;20462;-67
2022/09/06 02:25:36;;;;;;;24.23;22.70;;;17.80;99.90;;;;;;5077758;28;21014;-67
2022/09/06 02:28:03;;;;;;;23.50;22.00;;;17.80;99.90;;;;;;5083298;28;20820;-66
2022/09/06 02:30:34;;;;;;;25.03;22.73;;;17.80;99.90;;;;;;5082641;28;20464;-67
2022/09/06 02:33:06;;;;;;;23.97;22.10;;;17.80;99.90;;;;;;5082487;28;20819;-68
2022/09/06 02:35:42;;;;;;;24.93;23.13;;;17.80;99.90;;;;;;5077215;28;20482;-66
2022/09/06 02:38:09;;;;;;;24.60;23.00;;;17.70;99.90;;;;;;5076785;28;20489;-66
2022/09/06 02:40:37;;;;;;;24.40;22.80;;;17.70;99.90;;;;;;5080540;28;20486;-66
2022/09/06 02:43:04;;;;;;;26.03;24.13;;;17.80;99.90;;;;;;5079318;28;20451;-67
2022/09/06 02:45:34;;;;;;;24.23;22.73;;;17.80;99.90;;;;;;5081904;28;20462;-67
2022/09/06 02:48:01;;;;;;;24.30;22.60;;;17.80;99.90;;;;;;5078924;28;20458;-66
2022/09/06 02:50:28;;;;;;;24.70;23.10;;;17.80;99.90;;;;;;5075132;28;20462;-67
2022/09/06 02:53:03;;;;;;;26.27;24.47;;;17.80;99.90;;;;;;5084046;28;20463;-66
2022/09/06 02:55:30;;;;;;;25.77;24.17;;;17.80;99.90;;;;;;5075098;28;20467;-66
2022/09/06 02:57:57;;;;;;;25.40;23.70;;;17.80;99.90;;;;;;5083964;28;20465;-67
2022/09/06 03:00:24;;;;;;;24.87;23.07;;;17.80;99.90;;;;;;5078580;28;20496;-67
2022/09/06 03:02:54;;;;;;;24.47;22.87;;;17.80;99.90;;;;;;5075902;28;20494;-67
2022/09/06 03:05:22;;;;;;;24.53;22.90;;;17.80;99.90;;;;;;5079872;28;20552;-67
2022/09/06 03:07:51;;;;;;;25.10;23.30;;;17.80;99.90;;;;;;5082024;28;20528;-67
2022/09/06 03:10:18;;;;;;;24.80;23.00;;;17.80;99.90;;;;;;5083685;28;20496;-66
2022/09/06 03:12:45;;;;;;;25.03;23.33;;;17.80;99.90;;;;;;5078791;28;20790;-66
2022/09/06 03:15:16;;;;;;;24.50;22.70;;;17.80;99.90;;;;;;5078927;28;20564;-68
2022/09/06 03:17:43;;;;;;;24.90;22.57;;;17.70;99.90;;;;;;5079279;28;20837;-67
2022/09/06 03:20:12;;;;;;;24.50;22.70;;;17.80;99.90;;;;;;5082146;28;20494;-66
2022/09/06 03:22:39;;;;;;;25.50;23.70;;;17.70;99.90;;;;;;5077356;28;20496;-66
2022/09/06 03:25:08;;;;;;;25.97;24.17;;;17.70;99.90;;;;;;5081953;28;20457;-66
2022/09/06 03:27:35;;;;;;;26.90;24.40;;;17.70;99.90;;;;;;5076731;28;20457;-66
2022/09/06 03:30:02;;;;;;;25.17;23.37;;;17.70;99.90;;;;;;5079201;28;20451;-66
2022/09/06 03:32:30;;;;;;;24.90;23.10;;;17.70;99.90;;;;;;5078955;28;20541;-66
2022/09/06 03:34:58;;;;;;;25.67;23.57;;;17.70;99.90;;;;;;5083627;28;20570;-66
2022/09/06 03:37:27;;;;;;;23.73;22.23;;;17.70;99.90;;;;;;5080291;28;20545;-67
2022/09/06 03:39:55;;;;;;;23.97;22.27;;;17.70;99.90;;;;;;5073729;28;21006;-66
2022/09/06 03:42:24;;;;;;;24.20;22.40;;;17.70;99.90;;;;;;5078257;28;20467;-66
2022/09/06 03:44:52;;;;;;;24.50;22.70;;;17.70;99.90;;;;;;5081320;28;20466;-66
2022/09/06 03:47:20;;;;;;;25.07;22.87;;;17.60;99.90;;;;;;5076923;28;20909;-66
2022/09/06 03:49:47;;;;;;;26.27;24.00;;;17.50;99.90;;;;;;5075972;28;20451;-66
2022/09/06 03:52:14;;;;;;;24.67;22.60;;;17.50;99.90;;;;;;5082923;28;21281;-67
2022/09/06 03:54:43;;;;;;;23.67;21.50;;;17.40;99.90;;;;;;5081460;28;20450;-65
2022/09/06 03:57:10;;;;;;;29.70;23.20;;;17.40;99.90;;;;;;5079932;28;20485;-66
2022/09/06 03:59:37;;;;;;;50.07;24.40;;;17.30;99.90;;;;;;5082176;28;20478;-66
2022/09/06 04:02:05;;;;;;;42.83;23.47;;;17.30;99.90;;;;;;5082385;28;20482;-67
2022/09/06 04:04:32;;;;;;;39.30;22.67;;;17.30;99.90;;;;;;5081422;28;20865;-67
2022/09/06 04:06:59;;;;;;;49.03;23.20;;;17.20;99.90;;;;;;5057737;28;20827;-68
2022/09/06 04:09:25;;;;;;;31.00;22.87;;;17.20;99.90;;;;;;5049379;28;20807;-67
2022/09/06 04:11:53;;;;;;;36.90;22.33;;;17.10;99.90;;;;;;5053659;28;20473;-66
2022/09/06 04:14:22;;;;;;;26.20;23.60;;;17.10;99.90;;;;;;5054362;28;20470;-68
2022/09/06 04:16:49;;;;;;;26.30;21.93;;;17.10;99.90;;;;;;5052488;28;20944;-67
2022/09/06 04:19:16;;;;;;;35.90;24.23;;;17.00;99.90;;;;;;5052738;28;20450;-67
2022/09/06 04:21:43;;;;;;;26.47;23.33;;;17.00;99.90;;;;;;5052523;28;20810;-66
2022/09/06 04:24:10;;;;;;;25.03;22.50;;;17.00;99.90;;;;;;5052968;28;20513;-67
2022/09/06 04:26:37;;;;;;;25.57;23.27;;;16.90;99.90;;;;;;5051664;28;20831;-66
2022/09/06 04:29:06;;;;;;;26.50;23.90;;;16.90;99.90;;;;;;5052963;28;20805;-68
2022/09/06 04:31:32;;;;;;;25.27;21.30;;;16.80;99.90;;;;;;5051843;28;20463;-67
2022/09/06 04:33:59;;;;;;;29.77;23.70;;;16.90;99.90;;;;;;5053150;28;20956;-65
2022/09/06 04:36:28;;;;;;;24.13;21.73;;;16.80;99.90;;;;;;5052470;28;20463;-68
2022/09/06 04:38:55;;;;;;;24.90;22.60;;;16.90;99.90;;;;;;5053771;28;20458;-67
2022/09/06 04:41:22;;;;;;;23.33;21.43;;;16.80;99.90;;;;;;5051912;28;20490;-66
2022/09/06 04:43:48;;;;;;;23.53;21.43;;;16.80;99.90;;;;;;5053018;28;21050;-67
2022/09/06 04:46:20;;;;;;;25.70;22.80;;;16.80;99.90;;;;;;5051747;28;21318;-67
2022/09/06 04:48:48;;;;;;;23.93;21.70;;;16.80;99.90;;;;;;5051494;28;20506;-67
2022/09/06 04:51:15;;;;;;;24.60;22.70;;;16.80;99.90;;;;;;5052020;28;20491;-66
2022/09/06 04:53:42;;;;;;;23.30;21.07;;;16.80;99.90;;;;;;5051843;28;20839;-66
2022/09/06 04:56:14;;;;;;;23.50;21.60;;;16.80;99.90;;;;;;5051983;28;20883;-67
2022/09/06 04:58:42;;;;;;;23.13;21.33;;;16.80;99.90;;;;;;5052301;28;22779;-67
2022/09/06 05:01:08;;;;;;;22.47;20.50;;;16.80;99.90;;;;;;5051439;28;20523;-66
2022/09/06 05:03:37;;;;;;;23.03;20.10;;;16.80;99.90;;;;;;5051546;28;20979;-66
2022/09/06 05:06:05;;;;;;;22.63;20.77;;;16.80;99.90;;;;;;5052051;28;20459;-66
2022/09/06 05:08:32;;;;;;;22.27;20.10;;;16.80;99.90;;;;;;5051613;28;20463;-67
2022/09/06 05:10:59;;;;;;;21.30;19.30;;;16.80;99.90;;;;;;5051825;28;20455;-67
2022/09/06 05:13:26;;;;;;;22.07;20.00;;;16.90;99.90;;;;;;5051334;28;20482;-67
2022/09/06 05:15:53;;;;;;;21.20;19.47;;;16.80;99.90;;;;;;5050538;28;20528;-66
2022/09/06 05:18:20;;;;;;;21.40;19.73;;;16.80;99.90;;;;;;5050815;28;20455;-66
2022/09/06 05:20:54;;;;;;;21.90;20.10;;;16.80;99.90;;;;;;5049872;28;20495;-67
2022/09/06 05:23:21;;;;;;;19.57;18.17;;;16.80;99.90;;;;;;5050894;28;21221;-67
2022/09/06 05:25:49;;;;;;;23.33;21.40;;;16.80;99.90;;;;;;5051067;28;20821;-67
2022/09/06 05:28:16;;;;;;;21.23;19.50;;;16.70;99.90;;;;;;5050978;28;20461;-68
2022/09/06 05:30:44;;;;;;;22.40;20.40;;;16.80;99.90;;;;;;5052111;28;20451;-67
2022/09/06 05:33:11;;;;;;;21.17;19.00;;;16.80;99.90;;;;;;5051329;28;20860;-68
2022/09/06 05:35:39;;;;;;;21.50;19.97;;;16.80;99.90;;;;;;5050865;28;20492;-67
2022/09/06 05:38:07;;;;;;;20.30;18.87;;;16.80;99.90;;;;;;5051497;28;20466;-68
2022/09/06 05:40:34;;;;;;;24.50;20.23;;;16.80;99.90;;;;;;5049964;28;20489;-67
2022/09/06 05:43:01;;;;;;;21.80;19.67;;;16.80;99.90;;;;;;5049134;28;20564;-68
2022/09/06 05:45:28;;;;;;;20.27;18.57;;;16.90;99.90;;;;;;5050574;28;20474;-67
2022/09/06 05:47:54;;;;;;;23.67;21.53;;;16.90;99.90;;;;;;5075419;28;20456;-66
2022/09/06 05:50:21;;;;;;;27.23;19.30;;;16.90;99.90;;;;;;5081686;28;20473;-67
2022/09/06 05:52:48;;;;;;;27.73;20.00;;;17.00;99.90;;;;;;5082471;28;20490;-67
2022/09/06 05:55:16;;;;;;;28.80;19.30;;;17.00;99.90;;;;;;5056250;28;20838;-68
2022/09/06 05:57:43;;;;;;;20.63;18.40;;;17.20;99.90;;;;;;5050081;28;20807;-67
2022/09/06 06:00:12;;;;;;;24.17;19.20;;;17.30;99.90;;;;;;5050132;28;20509;-67
2022/09/06 06:02:39;;;;;;;23.23;19.93;;;17.30;99.90;;;;;;5049764;28;20506;-67
2022/09/06 06:05:07;;;;;;;26.47;19.27;;;17.40;99.90;;;;;;5050406;28;20471;-67
2022/09/06 06:07:34;;;;;;;26.97;18.93;;;17.50;99.90;;;;;;5050457;28;20462;-67
2022/09/06 06:10:01;;;;;;;27.53;19.87;;;17.60;99.90;;;;;;5049972;28;20471;-68
2022/09/06 06:12:29;;;;;;;26.57;18.67;;;17.60;99.90;;;;;;5050663;28;20463;-66
2022/09/06 06:14:56;;;;;;;21.17;17.57;;;17.80;99.90;;;;;;5050936;28;20501;-67
2022/09/06 06:17:23;;;;;;;32.77;19.37;;;17.90;99.90;;;;;;5049949;28;20467;-67
2022/09/06 06:19:50;;;;;;;29.27;19.10;;;18.00;99.90;;;;;;5050220;28;20454;-68
2022/09/06 06:22:17;;;;;;;25.47;19.07;;;18.10;99.90;;;;;;5049853;28;20469;-67
2022/09/06 06:24:44;;;;;;;29.53;19.90;;;18.10;99.90;;;;;;5048272;28;20470;-68
2022/09/06 06:27:11;;;;;;;26.23;19.50;;;18.10;99.90;;;;;;5049771;28;21115;-68
2022/09/06 06:29:39;;;;;;;24.60;17.73;;;18.20;99.90;;;;;;5050270;28;20470;-67
2022/09/06 06:32:06;;;;;;;41.27;20.10;;;18.30;99.90;;;;;;5047707;28;20586;-68
2022/09/06 06:34:33;;;;;;;25.73;19.10;;;18.40;99.90;;;;;;5048672;28;20942;-68
2022/09/06 06:37:00;;;;;;;24.20;18.17;;;18.40;99.90;;;;;;5049471;28;20972;-66
2022/09/06 06:39:27;;;;;;;24.40;18.60;;;18.60;99.90;;;;;;5048996;28;20471;-67
2022/09/06 06:41:54;;;;;;;21.37;17.40;;;18.60;99.90;;;;;;5050276;28;20492;-68
2022/09/06 06:44:21;;;;;;;24.23;17.97;;;18.70;99.90;;;;;;5050118;28;20547;-68
2022/09/06 06:46:50;;;;;;;30.03;18.63;;;18.80;99.90;;;;;;5060996;28;20474;-67
2022/09/06 06:49:17;;;;;;;19.80;17.80;;;19.00;99.90;;;;;;5085837;28;20458;-68
2022/09/06 06:51:44;;;;;;;26.60;17.80;;;19.00;99.90;;;;;;5073345;28;20458;-67
2022/09/06 06:54:11;;;;;;;23.73;17.97;;;19.10;99.90;;;;;;5075045;28;20876;-67
2022/09/06 06:56:40;;;;;;;24.60;18.50;;;19.20;99.90;;;;;;5051912;28;20798;-68
2022/09/06 06:59:07;;;;;;;18.87;16.73;;;19.30;99.90;;;;;;5054626;28;20541;-68
2022/09/06 07:01:36;;;;;;;22.27;17.77;;;19.40;99.90;;;;;;5079157;28;20492;-68
2022/09/06 07:04:04;;;;;;;20.80;16.97;;;19.50;99.90;;;;;;5079719;28;20558;-67
2022/09/06 07:06:31;;;;;;;22.87;16.70;;;19.50;99.90;;;;;;5055668;28;20459;-68
2022/09/06 07:08:58;;;;;;;29.63;16.43;;;19.70;99.90;;;;;;5045409;28;21124;-68
2022/09/06 07:11:25;;;;;;;26.17;15.33;;;19.80;99.90;;;;;;5047587;28;20542;-67
2022/09/06 07:13:52;;;;;;;28.10;17.27;;;19.90;99.90;;;;;;5049494;28;20454;-67
2022/09/06 07:16:21;;;;;;;18.00;16.33;;;20.00;99.90;;;;;;5048597;28;20494;-68
2022/09/06 07:18:51;;;;;;;24.60;17.10;;;20.10;99.90;;;;;;5049643;28;20462;-68
2022/09/06 07:21:24;;;;;;;20.27;18.23;;;20.30;99.90;;;;;;5049246;28;21001;-67
2022/09/06 07:23:52;;;;;;;19.03;17.10;;;20.40;99.90;;;;;;5049164;28;20967;-68
2022/09/06 07:26:20;;;;;;;19.40;17.27;;;20.50;99.90;;;;;;5049261;28;21654;-69
2022/09/06 07:28:48;;;;;;;26.50;17.50;;;20.60;99.90;;;;;;5049287;28;20470;-68
2022/09/06 07:31:15;;;;;;;17.80;16.17;;;20.70;99.90;;;;;;5049687;28;21222;-67
2022/09/06 07:33:42;;;;;;;18.57;16.17;;;20.90;99.90;;;;;;5050274;28;20988;-69
2022/09/06 07:36:10;;;;;;;18.37;16.93;;;21.10;99.90;;;;;;5048749;28;20480;-68
2022/09/06 07:38:39;;;;;;;17.80;15.70;;;21.20;99.90;;;;;;5049561;28;20477;-69
2022/09/06 07:41:07;;;;;;;19.63;16.80;;;21.20;99.90;;;;;;5049526;28;20935;-69
2022/09/06 07:43:35;;;;;;;18.67;16.80;;;21.40;99.90;;;;;;5048229;28;20454;-69
2022/09/06 07:46:03;;;;;;;18.23;16.20;;;21.60;99.90;;;;;;5052909;28;21102;-68
2022/09/06 07:48:31;;;;;;;21.60;17.00;;;21.60;99.90;;;;;;5055210;28;20467;-69
2022/09/06 07:51:09;;;;;;;19.27;17.30;;;21.80;99.90;;;;;;5055395;28;20473;-68
2022/09/06 07:53:38;;;;;;;18.07;16.47;;;21.70;99.90;;;;;;5056724;28;20466;-68
2022/09/06 07:56:07;;;;;;;20.83;17.03;;;21.90;99.90;;;;;;5055880;28;20469;-69
2022/09/06 07:58:34;;;;;;;18.20;16.60;;;22.00;99.90;;;;;;5055218;28;20451;-68
2022/09/06 08:01:15;;;;;;;18.70;17.20;;;22.40;99.90;;;;;;5053683;28;21234;-67
2022/09/06 08:03:43;;;;;;;18.70;17.07;;;22.50;99.90;;;;;;5056019;28;20879;-67
2022/09/06 08:06:10;;;;;;;18.43;17.00;;;22.50;99.90;;;;;;5053544;28;21113;-69
2022/09/06 08:08:38;;;;;;;18.40;17.00;;;22.50;99.90;;;;;;5058440;28;21064;-68
2022/09/06 08:11:08;;;;;;;18.40;17.07;;;22.60;99.90;;;;;;5058783;28;20570;-68
2022/09/06 08:13:35;;;;;;;20.33;17.30;;;22.60;99.90;;;;;;5057382;28;20880;-67
2022/09/06 08:16:03;;;;;;;18.57;16.73;;;22.80;99.90;;;;;;5057395;28;20942;-68
2022/09/06 08:18:31;;;;;;;22.00;16.90;;;23.00;99.90;;;;;;5057630;28;21227;-68
2022/09/06 08:21:06;;;;;;;18.97;17.20;;;23.10;99.90;;;;;;5057498;28;20486;-67
2022/09/06 08:23:34;;;;;;;18.13;17.07;;;23.10;99.90;;;;;;5056952;28;21151;-69
2022/09/06 08:26:02;;;;;;;18.33;17.20;;;23.30;99.90;;;;;;5055050;28;20875;-67
2022/09/06 08:28:29;;;;;;;18.47;17.00;;;23.50;99.90;;;;;;5055704;28;20832;-69
2022/09/06 08:31:04;;;;;;;18.97;17.60;;;23.60;99.90;;;;;;5057652;28;20458;-67
2022/09/06 08:33:31;;;;;;;18.60;16.97;;;23.80;99.90;;;;;;5057889;28;20459;-66
2022/09/06 08:35:58;;;;;;;18.60;16.93;;;24.00;99.90;;;;;;5057389;28;20458;-67
2022/09/06 08:38:26;;;;;;;19.00;17.47;;;24.00;99.90;;;;;;5056407;28;20498;-67
2022/09/06 08:40:54;;;;;;;19.90;18.20;;;24.20;99.90;;;;;;5082994;28;22426;-68
2022/09/06 08:43:23;;;;;;;18.43;17.10;;;24.20;99.90;;;;;;5071421;28;20459;-69
2022/09/06 08:45:55;;;;;;;18.17;16.97;;;24.40;99.90;;;;;;5055742;28;20467;-69
2022/09/06 08:48:24;;;;;;;18.70;17.40;;;24.40;99.90;;;;;;5055112;28;20548;-68
2022/09/06 08:51:00;;;;;;;19.37;17.73;;;24.60;99.90;;;;;;5054207;28;20477;-67
2022/09/06 08:53:27;;;;;;;19.33;18.03;;;24.70;99.90;;;;;;5055467;28;20571;-68
2022/09/06 08:56:03;;;;;;;18.57;17.47;;;24.80;99.90;;;;;;5052432;28;20467;-68
2022/09/06 08:58:44;;;;;;;18.80;17.50;;;24.70;99.90;;;;;;5049164;28;20473;-68
2022/09/06 09:01:15;;;;;;;18.43;17.10;;;24.80;99.90;;;;;;5048884;28;20624;-68
2022/09/06 09:03:43;;;;;;;18.90;17.77;;;25.00;99.90;;;;;;5052996;28;20455;-69
2022/09/06 09:06:10;;;;;;;18.53;17.13;;;25.10;99.90;;;;;;5051425;28;20993;-68
2022/09/06 09:08:46;;;;;;;18.63;17.57;;;25.20;99.90;;;;;;5052204;28;20463;-69
2022/09/06 09:11:16;;;;;;;27.40;17.90;;;25.30;99.90;;;;;;5051932;28;21273;-69
2022/09/06 09:13:53;;;;;;;19.87;18.13;;;25.70;99.90;;;;;;5052043;28;21099;-68
2022/09/06 09:16:21;;;;;;;19.53;18.10;;;26.40;99.90;;;;;;5051079;28;21024;-69
2022/09/06 09:18:51;;;;;;;19.67;18.47;;;27.10;99.90;;;;;;5051171;28;20571;-69
2022/09/06 09:21:21;;;;;;;19.67;18.30;;;28.10;99.90;;;;;;5051425;28;21240;-70
2022/09/06 09:23:53;;;;;;;20.50;19.00;;;28.70;99.90;;;;;;5051664;28;21094;-69
2022/09/06 09:26:25;;;;;;;19.13;17.93;;;29.10;99.90;;;;;;5050980;28;20458;-70
2022/09/06 09:29:09;;;;;;;20.00;18.47;;;29.50;99.90;;;;;;5052178;28;20631;-69
2022/09/06 09:31:38;;;;;;;20.07;18.77;;;30.10;99.90;;;;;;5052268;28;20465;-69
2022/09/06 09:34:10;;;;;;;20.43;19.13;;;30.20;99.90;;;;;;5051690;28;21057;-70
2022/09/06 09:36:37;;;;;;;20.17;18.60;;;30.70;99.90;;;;;;5050762;28;20501;-69
2022/09/06 09:39:10;;;;;;;18.97;17.87;;;31.10;99.50;;;;;;5051784;28;20471;-70
2022/09/06 09:41:40;;;;;;;20.17;18.70;;;31.30;98.10;;;;;;5051887;28;20485;-70
2022/09/06 09:44:16;;;;;;;20.30;17.60;;;31.70;97.40;;;;;;5051688;28;20562;-70
2022/09/06 09:46:43;;;;;;;20.07;18.20;;;32.20;94.80;;;;;;5051152;28;20467;-69
2022/09/06 09:49:12;;;;;;;20.57;18.20;;;32.50;94.80;;;;;;5051239;28;20950;-69
2022/09/06 09:51:40;;;;;;;20.40;18.37;;;32.90;92.70;;;;;;5050981;28;20462;-70
2022/09/06 09:54:09;;;;;;;20.57;18.60;;;33.30;91.70;;;;;;5050647;28;20881;-68
2022/09/06 09:56:44;;;;;;;19.27;17.97;;;33.00;90.50;;;;;;5050173;28;21052;-69
2022/09/06 09:59:27;;;;;;;19.33;18.00;;;32.80;89.20;;;;;;5051278;28;20989;-71
2022/09/06 10:01:56;;;;;;;18.50;17.47;;;33.50;86.80;;;;;;5049415;28;20493;-69
2022/09/06 10:04:29;;;;;;;19.00;17.50;;;33.50;84.70;;;;;;5050634;28;20459;-68
2022/09/06 10:07:09;;;;;;;19.67;18.07;;;34.00;82.30;;;;;;5078035;28;20466;-68
2022/09/06 10:09:39;;;;;;;18.73;17.40;;;33.80;80.20;;;;;;5087741;28;20465;-70
2022/09/06 10:12:07;;;;;;;18.73;17.40;;;34.10;79.70;;;;;;5080172;28;20461;-71
2022/09/06 10:14:42;;;;;;;17.93;16.43;;;33.60;79.60;;;;;;5056862;28;20487;-68
2022/09/06 10:17:19;;;;;;;17.73;16.73;;;33.70;78.90;;;;;;5048173;28;20533;-67
2022/09/06 10:19:47;;;;;;;18.03;16.93;;;33.70;80.00;;;;;;5048225;28;20637;-69
2022/09/06 10:22:27;;;;;;;18.20;17.20;;;33.70;78.00;;;;;;5048231;28;21091;-68
2022/09/06 10:25:18;;;;;;;19.57;17.63;;;34.00;77.00;;;;;;5049226;28;21109;-71
2022/09/06 10:27:57;;;;;;;18.70;17.17;;;34.30;74.50;;;;;;5049242;28;20483;-69
2022/09/06 10:30:28;;;;;;;18.10;17.00;;;33.90;74.90;;;;;;5046094;28;20474;-68
2022/09/06 10:33:03;;;;;;;17.93;16.93;;;33.50;76.00;;;;;;5048611;28;20809;-68
2022/09/06 10:35:32;;;;;;;18.77;17.77;;;33.50;76.20;;;;;;5048208;28;20466;-69
2022/09/06 10:38:17;;;;;;;17.97;16.73;;;33.70;75.00;;;;;;5069159;28;20562;-68
2022/09/06 10:40:54;;;;;;;17.33;16.53;;;33.40;72.70;;;;;;5074379;28;20470;-68
2022/09/06 10:43:21;;;;;;;17.73;16.80;;;33.20;73.10;;;;;;5077224;28;20967;-67
2022/09/06 10:45:58;;;;;;;18.30;17.23;;;33.40;73.50;;;;;;5073002;28;20544;-69
2022/09/06 10:48:29;;;;;;;19.00;17.40;;;33.70;72.60;;;;;;5048058;28;20474;-68
2022/09/06 10:50:59;;;;;;;18.53;17.40;;;34.40;71.30;;;;;;5048587;28;20470;-68
2022/09/06 10:53:39;;;;;;;18.40;16.97;;;34.40;69.40;;;;;;5048359;28;20530;-68
2022/09/06 10:56:10;;;;;;;17.80;16.90;;;35.00;69.10;;;;;;5047644;28;20466;-69
2022/09/06 10:58:46;;;;;;;17.87;16.87;;;35.30;67.10;;;;;;5048846;28;22802;-69
2022/09/06 11:01:23;;;;;;;17.40;16.37;;;34.50;66.80;;;;;;5046101;28;20494;-70
2022/09/06 11:03:51;;;;;;;18.00;17.00;;;35.00;66.30;;;;;;5048748;28;20446;-68
2022/09/06 11:06:21;;;;;;;19.00;18.00;;;35.50;65.30;;;;;;5072702;28;20516;-68
2022/09/06 11:08:54;;;;;;;17.80;16.90;;;36.00;64.30;;;;;;5072270;28;20844;-69
2022/09/06 11:11:25;;;;;;;18.60;17.50;;;36.10;62.60;;;;;;5077100;28;20895;-69
2022/09/06 11:13:52;;;;;;;18.60;17.30;;;36.00;61.20;;;;;;5057962;28;20971;-68
2022/09/06 11:16:25;;;;;;;18.57;17.57;;;36.00;61.10;;;;;;5048082;28;21324;-69
2022/09/06 11:18:57;;;;;;;18.20;17.00;;;36.30;60.70;;;;;;5047142;28;20463;-69
2022/09/06 11:21:46;;;;;;;17.80;16.70;;;36.50;59.80;;;;;;5047962;28;20473;-70
2022/09/06 11:24:14;;;;;;;18.20;17.30;;;36.80;59.30;;;;;;5048097;28;20463;-70
2022/09/06 11:26:44;;;;;;;18.17;16.80;;;36.30;59.00;;;;;;5046803;28;20466;-69
2022/09/06 11:29:19;;;;;;;18.57;17.20;;;35.90;58.70;;;;;;5047406;28;20463;-71
2022/09/06 11:31:53;;;;;;;17.90;16.70;;;35.50;58.90;;;;;;5047714;28;20947;-70
2022/09/06 11:34:24;;;;;;;17.47;16.47;;;34.80;59.70;;;;;;5047607;28;20477;-71
2022/09/06 11:36:54;;;;;;;17.10;16.20;;;34.40;61.50;;;;;;5048552;28;20482;-71
2022/09/06 11:39:26;;;;;;;16.80;15.90;;;35.00;61.20;;;;;;5048654;28;20465;-70
2022/09/06 11:41:53;;;;;;;17.10;16.00;;;34.50;60.80;;;;;;5047508;28;20575;-71
2022/09/06 11:44:52;;;;;;;18.03;16.97;;;35.30;59.60;;;;;;5047529;28;20572;-72
2022/09/06 11:47:39;;;;;;;19.13;16.20;;;36.20;58.10;;;;;;5046841;28;21024;-70
2022/09/06 11:50:24;;;;;;;18.47;17.20;;;36.70;57.40;;;;;;5047999;28;20767;-70
2022/09/06 11:53:01;;;;;;;16.47;15.67;;;36.90;56.10;;;;;;5047960;28;21005;-70
2022/09/06 11:55:35;;;;;;;17.27;16.30;;;36.80;55.70;;;;;;5050260;28;20468;-69
2022/09/06 11:58:05;;;;;;;17.57;16.30;;;36.80;55.40;;;;;;5050436;28;20676;-70
2022/09/06 12:00:32;;;;;;;16.70;15.80;;;36.30;55.20;;;;;;5048934;28;20985;-70
2022/09/06 12:03:01;;;;;;;17.63;16.27;;;36.00;55.70;;;;;;5049621;28;20505;-69
2022/09/06 12:05:30;;;;;;;21.67;19.20;;;36.00;54.00;;;;;;5047611;28;20876;-69
2022/09/06 12:08:23;;;;;;;17.77;16.37;;;36.50;54.80;;;;;;5048063;28;20532;-67
2022/09/06 12:10:57;;;;;;;18.77;17.10;;;36.60;54.70;;;;;;5047930;28;20902;-67
2022/09/06 12:13:47;;;;;;;17.53;16.30;;;36.10;52.60;;;;;;5048943;28;20459;-70
2022/09/06 12:16:16;;;;;;;17.20;16.30;;;35.60;49.60;;;;;;5048162;28;20616;-67
2022/09/06 12:18:59;;;;;;;17.40;16.40;;;35.50;50.40;;;;;;5048629;28;20461;-68
2022/09/06 12:21:44;;;;;;;18.33;17.10;;;36.20;50.80;;;;;;5048579;28;20466;-68
2022/09/06 12:24:51;;;;;;;17.57;16.67;;;36.30;46.80;;;;;;5048567;28;21406;-68
2022/09/06 12:27:19;;;;;;;18.33;17.33;;;36.60;45.40;;;;;;5048379;28;20466;-69
2022/09/06 12:29:53;;;;;;;16.43;15.20;;;36.70;43.50;;;;;;5047981;28;20454;-69
2022/09/06 12:32:25;;;;;;;17.10;16.20;;;35.90;39.80;;;;;;5063040;28;20468;-69
2022/09/06 12:34:55;;;;;;;16.13;15.40;;;35.40;39.60;;;;;;5083215;28;20953;-68
2022/09/06 12:37:36;;;;;;;17.23;16.33;;;35.20;38.60;;;;;;5057905;28;20515;-66
2022/09/06 12:40:04;;;;;;;16.10;15.40;;;34.60;42.40;;;;;;5052968;28;21236;-69
2022/09/06 12:42:34;;;;;;;17.37;16.00;;;35.10;42.60;;;;;;5052387;28;20572;-68
2022/09/06 12:45:04;;;;;;;18.10;16.90;;;35.40;42.40;;;;;;5052104;28;20852;-69